sensor_id;sensor_type;location;lat;lon;timestamp;temperature;humidity
70830;SHT30;58451;51.550;7.208;2023-09-12T00:00:05;20.85;73.43
70830;SHT30;58451;51.550;7.208;2023-09-12T00:01:44;20.83;73.33
70830;SHT30;58451;51.550;7.208;2023-09-12T00:03:18;20.80;73.45
70830;SHT30;58451;51.550;7.208;2023-09-12T00:04:53;20.78;73.47
70830;SHT30;58451;51.550;7.208;2023-09-12T00:06:25;20.75;73.52
70830;SHT30;58451;51.550;7.208;2023-09-12T00:07:57;20.74;73.50
70830;SHT30;58451;51.550;7.208;2023-09-12T00:09:29;20.71;73.52
70830;SHT30;58451;51.550;7.208;2023-09-12T00:11:05;20.69;73.58
70830;SHT30;58451;51.550;7.208;2023-09-12T00:12:42;20.67;73.58
70830;SHT30;58451;51.550;7.208;2023-09-12T00:14:17;20.65;73.68
70830;SHT30;58451;51.550;7.208;2023-09-12T00:15:50;20.63;73.67
70830;SHT30;58451;51.550;7.208;2023-09-12T00:17:21;20.61;73.75
70830;SHT30;58451;51.550;7.208;2023-09-12T00:18:53;20.60;73.77
70830;SHT30;58451;51.550;7.208;2023-09-12T00:20:25;20.59;73.78
70830;SHT30;58451;51.550;7.208;2023-09-12T00:21:57;20.57;73.98
70830;SHT30;58451;51.550;7.208;2023-09-12T00:23:29;20.53;74.45
70830;SHT30;58451;51.550;7.208;2023-09-12T00:25:01;20.50;74.28
70830;SHT30;58451;51.550;7.208;2023-09-12T00:26:33;20.49;74.17
70830;SHT30;58451;51.550;7.208;2023-09-12T00:28:05;20.45;74.18
70830;SHT30;58451;51.550;7.208;2023-09-12T00:29:37;20.43;74.27
70830;SHT30;58451;51.550;7.208;2023-09-12T00:31:09;20.41;74.30
70830;SHT30;58451;51.550;7.208;2023-09-12T00:32:41;20.39;74.37
70830;SHT30;58451;51.550;7.208;2023-09-12T00:34:16;20.36;74.80
70830;SHT30;58451;51.550;7.208;2023-09-12T00:35:49;20.31;74.72
70830;SHT30;58451;51.550;7.208;2023-09-12T00:37:21;20.29;74.70
70830;SHT30;58451;51.550;7.208;2023-09-12T00:38:52;20.28;74.77
70830;SHT30;58451;51.550;7.208;2023-09-12T00:40:24;20.27;74.80
70830;SHT30;58451;51.550;7.208;2023-09-12T00:41:57;20.25;75.40
70830;SHT30;58451;51.550;7.208;2023-09-12T00:43:29;20.25;75.23
70830;SHT30;58451;51.550;7.208;2023-09-12T00:45:00;20.24;75.18
70830;SHT30;58451;51.550;7.208;2023-09-12T00:46:33;20.24;75.20
70830;SHT30;58451;51.550;7.208;2023-09-12T00:48:08;20.24;75.28
70830;SHT30;58451;51.550;7.208;2023-09-12T00:49:42;20.24;75.35
70830;SHT30;58451;51.550;7.208;2023-09-12T00:51:25;20.25;75.33
70830;SHT30;58451;51.550;7.208;2023-09-12T00:52:59;20.26;75.40
70830;SHT30;58451;51.550;7.208;2023-09-12T00:54:33;20.27;75.45
70830;SHT30;58451;51.550;7.208;2023-09-12T00:56:05;20.29;75.60
70830;SHT30;58451;51.550;7.208;2023-09-12T00:57:38;20.32;75.75
70830;SHT30;58451;51.550;7.208;2023-09-12T00:59:10;20.34;75.82
70830;SHT30;58451;51.550;7.208;2023-09-12T01:00:43;20.36;76.02
70830;SHT30;58451;51.550;7.208;2023-09-12T01:02:15;20.40;76.12
70830;SHT30;58451;51.550;7.208;2023-09-12T01:03:49;20.43;76.28
70830;SHT30;58451;51.550;7.208;2023-09-12T01:05:21;20.46;76.32
70830;SHT30;58451;51.550;7.208;2023-09-12T01:06:54;20.48;76.43
70830;SHT30;58451;51.550;7.208;2023-09-12T01:08:26;20.49;76.77
70830;SHT30;58451;51.550;7.208;2023-09-12T01:09:59;20.49;77.17
70830;SHT30;58451;51.550;7.208;2023-09-12T01:11:32;20.48;76.92
70830;SHT30;58451;51.550;7.208;2023-09-12T01:13:04;20.47;77.00
70830;SHT30;58451;51.550;7.208;2023-09-12T01:14:39;20.47;77.12
70830;SHT30;58451;51.550;7.208;2023-09-12T01:16:11;20.46;77.05
70830;SHT30;58451;51.550;7.208;2023-09-12T01:17:43;20.46;76.95
70830;SHT30;58451;51.550;7.208;2023-09-12T01:19:19;20.46;76.92
70830;SHT30;58451;51.550;7.208;2023-09-12T01:21:05;20.48;77.02
70830;SHT30;58451;51.550;7.208;2023-09-12T01:23:05;20.48;77.02
70830;SHT30;58451;51.550;7.208;2023-09-12T01:28:54;20.43;77.40
70830;SHT30;58451;51.550;7.208;2023-09-12T01:30:31;20.42;77.52
70830;SHT30;58451;51.550;7.208;2023-09-12T01:32:07;20.40;77.75
70830;SHT30;58451;51.550;7.208;2023-09-12T01:33:41;20.39;77.65
70830;SHT30;58451;51.550;7.208;2023-09-12T01:35:13;20.40;77.65
70830;SHT30;58451;51.550;7.208;2023-09-12T01:36:45;20.39;77.68
70830;SHT30;58451;51.550;7.208;2023-09-12T01:38:17;20.38;77.67
70830;SHT30;58451;51.550;7.208;2023-09-12T01:39:50;20.36;77.60
70830;SHT30;58451;51.550;7.208;2023-09-12T01:41:22;20.36;77.83
70830;SHT30;58451;51.550;7.208;2023-09-12T01:42:55;20.36;78.27
70830;SHT30;58451;51.550;7.208;2023-09-12T01:44:29;20.35;78.18
70830;SHT30;58451;51.550;7.208;2023-09-12T01:46:03;20.33;78.03
70830;SHT30;58451;51.550;7.208;2023-09-12T01:47:35;20.32;78.10
70830;SHT30;58451;51.550;7.208;2023-09-12T01:49:10;20.29;78.05
70830;SHT30;58451;51.550;7.208;2023-09-12T01:50:46;20.28;78.02
70830;SHT30;58451;51.550;7.208;2023-09-12T01:52:20;20.26;78.02
70830;SHT30;58451;51.550;7.208;2023-09-12T01:53:53;20.26;77.98
70830;SHT30;58451;51.550;7.208;2023-09-12T01:55:26;20.27;78.02
70830;SHT30;58451;51.550;7.208;2023-09-12T01:56:59;20.27;78.03
70830;SHT30;58451;51.550;7.208;2023-09-12T01:58:34;20.25;78.00
70830;SHT30;58451;51.550;7.208;2023-09-12T02:00:07;20.25;78.02
70830;SHT30;58451;51.550;7.208;2023-09-12T02:01:40;20.24;78.03
70830;SHT30;58451;51.550;7.208;2023-09-12T02:03:14;20.23;78.05
70830;SHT30;58451;51.550;7.208;2023-09-12T02:04:47;20.21;78.10
70830;SHT30;58451;51.550;7.208;2023-09-12T02:06:34;20.20;78.18
70830;SHT30;58451;51.550;7.208;2023-09-12T02:08:07;20.17;78.35
70830;SHT30;58451;51.550;7.208;2023-09-12T02:09:39;20.14;78.47
70830;SHT30;58451;51.550;7.208;2023-09-12T02:11:11;20.12;78.60
70830;SHT30;58451;51.550;7.208;2023-09-12T02:12:43;20.13;78.73
70830;SHT30;58451;51.550;7.208;2023-09-12T02:14:15;20.13;78.82
70830;SHT30;58451;51.550;7.208;2023-09-12T02:15:47;20.13;78.95
70830;SHT30;58451;51.550;7.208;2023-09-12T02:17:20;20.15;78.83
70830;SHT30;58451;51.550;7.208;2023-09-12T02:18:53;20.17;78.83
70830;SHT30;58451;51.550;7.208;2023-09-12T02:20:25;20.19;78.90
70830;SHT30;58451;51.550;7.208;2023-09-12T02:21:57;20.21;78.88
70830;SHT30;58451;51.550;7.208;2023-09-12T02:23:29;20.22;78.97
70830;SHT30;58451;51.550;7.208;2023-09-12T02:25:02;20.23;79.07
70830;SHT30;58451;51.550;7.208;2023-09-12T02:26:39;20.23;79.10
70830;SHT30;58451;51.550;7.208;2023-09-12T02:28:11;20.24;79.23
70830;SHT30;58451;51.550;7.208;2023-09-12T02:29:44;20.22;79.32
70830;SHT30;58451;51.550;7.208;2023-09-12T02:31:16;20.21;79.35
70830;SHT30;58451;51.550;7.208;2023-09-12T02:32:48;20.21;79.43
70830;SHT30;58451;51.550;7.208;2023-09-12T02:34:20;20.21;79.53
70830;SHT30;58451;51.550;7.208;2023-09-12T02:35:52;20.21;79.57
70830;SHT30;58451;51.550;7.208;2023-09-12T02:37:24;20.21;79.50
70830;SHT30;58451;51.550;7.208;2023-09-12T02:38:56;20.21;79.48
70830;SHT30;58451;51.550;7.208;2023-09-12T02:40:28;20.22;79.57
70830;SHT30;58451;51.550;7.208;2023-09-12T02:42:00;20.25;79.60
70830;SHT30;58451;51.550;7.208;2023-09-12T02:43:33;20.25;79.67
70830;SHT30;58451;51.550;7.208;2023-09-12T02:45:05;20.26;79.62
70830;SHT30;58451;51.550;7.208;2023-09-12T02:46:38;20.28;79.58
70830;SHT30;58451;51.550;7.208;2023-09-12T02:48:10;20.30;79.55
70830;SHT30;58451;51.550;7.208;2023-09-12T02:49:42;20.33;79.55
70830;SHT30;58451;51.550;7.208;2023-09-12T02:51:14;20.33;79.58
70830;SHT30;58451;51.550;7.208;2023-09-12T02:52:46;20.34;79.60
70830;SHT30;58451;51.550;7.208;2023-09-12T02:54:18;20.35;79.60
70830;SHT30;58451;51.550;7.208;2023-09-12T02:55:51;20.36;79.57
70830;SHT30;58451;51.550;7.208;2023-09-12T02:57:24;20.36;79.75
70830;SHT30;58451;51.550;7.208;2023-09-12T02:58:56;20.35;79.92
70830;SHT30;58451;51.550;7.208;2023-09-12T03:00:28;20.33;79.92
70830;SHT30;58451;51.550;7.208;2023-09-12T03:02:01;20.32;79.82
70830;SHT30;58451;51.550;7.208;2023-09-12T03:03:33;20.33;79.70
70830;SHT30;58451;51.550;7.208;2023-09-12T03:05:06;20.33;79.70
70830;SHT30;58451;51.550;7.208;2023-09-12T03:06:38;20.34;79.80
70830;SHT30;58451;51.550;7.208;2023-09-12T03:08:10;20.33;79.77
70830;SHT30;58451;51.550;7.208;2023-09-12T03:09:43;20.32;79.67
70830;SHT30;58451;51.550;7.208;2023-09-12T03:11:18;20.33;79.73
70830;SHT30;58451;51.550;7.208;2023-09-12T03:12:50;20.33;79.93
70830;SHT30;58451;51.550;7.208;2023-09-12T03:14:22;20.33;79.87
70830;SHT30;58451;51.550;7.208;2023-09-12T03:15:54;20.34;79.82
70830;SHT30;58451;51.550;7.208;2023-09-12T03:17:27;20.34;79.82
70830;SHT30;58451;51.550;7.208;2023-09-12T03:19:00;20.35;80.02
70830;SHT30;58451;51.550;7.208;2023-09-12T03:20:37;20.35;79.87
70830;SHT30;58451;51.550;7.208;2023-09-12T03:22:11;20.36;79.77
70830;SHT30;58451;51.550;7.208;2023-09-12T03:23:43;20.35;79.73
70830;SHT30;58451;51.550;7.208;2023-09-12T03:25:16;20.35;80.02
70830;SHT30;58451;51.550;7.208;2023-09-12T03:29:54;20.28;80.00
70830;SHT30;58451;51.550;7.208;2023-09-12T03:31:26;20.27;79.93
70830;SHT30;58451;51.550;7.208;2023-09-12T03:33:00;20.28;79.97
70830;SHT30;58451;51.550;7.208;2023-09-12T03:34:32;20.28;79.98
70830;SHT30;58451;51.550;7.208;2023-09-12T03:36:05;20.27;80.08
70830;SHT30;58451;51.550;7.208;2023-09-12T03:41:00;20.21;80.43
70830;SHT30;58451;51.550;7.208;2023-09-12T03:42:33;20.19;80.37
70830;SHT30;58451;51.550;7.208;2023-09-12T03:44:13;20.11;80.75
70830;SHT30;58451;51.550;7.208;2023-09-12T03:45:46;20.06;80.58
70830;SHT30;58451;51.550;7.208;2023-09-12T03:47:18;20.03;80.48
70830;SHT30;58451;51.550;7.208;2023-09-12T03:48:50;20.00;80.43
70830;SHT30;58451;51.550;7.208;2023-09-12T03:50:22;19.99;80.42
70830;SHT30;58451;51.550;7.208;2023-09-12T03:51:56;19.98;80.43
70830;SHT30;58451;51.550;7.208;2023-09-12T03:53:27;19.95;80.43
70830;SHT30;58451;51.550;7.208;2023-09-12T03:54:59;19.93;80.48
70830;SHT30;58451;51.550;7.208;2023-09-12T03:56:33;19.91;80.47
70830;SHT30;58451;51.550;7.208;2023-09-12T03:58:05;19.91;80.50
70830;SHT30;58451;51.550;7.208;2023-09-12T03:59:37;19.91;80.62
70830;SHT30;58451;51.550;7.208;2023-09-12T04:01:09;19.90;80.57
70830;SHT30;58451;51.550;7.208;2023-09-12T04:02:41;19.90;80.62
70830;SHT30;58451;51.550;7.208;2023-09-12T04:04:13;19.89;80.57
70830;SHT30;58451;51.550;7.208;2023-09-12T04:05:46;19.89;80.62
70830;SHT30;58451;51.550;7.208;2023-09-12T04:07:19;19.89;80.60
70830;SHT30;58451;51.550;7.208;2023-09-12T04:08:51;19.88;80.62
70830;SHT30;58451;51.550;7.208;2023-09-12T04:10:23;19.87;80.60
70830;SHT30;58451;51.550;7.208;2023-09-12T04:11:55;19.86;80.65
70830;SHT30;58451;51.550;7.208;2023-09-12T04:13:27;19.82;80.65
70830;SHT30;58451;51.550;7.208;2023-09-12T04:14:59;19.81;80.73
70830;SHT30;58451;51.550;7.208;2023-09-12T04:16:31;19.79;80.77
70830;SHT30;58451;51.550;7.208;2023-09-12T04:18:05;19.76;80.87
70830;SHT30;58451;51.550;7.208;2023-09-12T04:19:38;19.75;80.88
70830;SHT30;58451;51.550;7.208;2023-09-12T04:21:10;19.73;80.88
70830;SHT30;58451;51.550;7.208;2023-09-12T04:22:42;19.71;80.93
70830;SHT30;58451;51.550;7.208;2023-09-12T04:24:14;19.70;80.90
70830;SHT30;58451;51.550;7.208;2023-09-12T04:25:49;19.69;80.90
70830;SHT30;58451;51.550;7.208;2023-09-12T04:27:22;19.69;80.98
70830;SHT30;58451;51.550;7.208;2023-09-12T04:28:56;19.69;80.93
70830;SHT30;58451;51.550;7.208;2023-09-12T04:30:28;19.68;80.93
70830;SHT30;58451;51.550;7.208;2023-09-12T04:32:01;19.68;81.07
70830;SHT30;58451;51.550;7.208;2023-09-12T04:33:36;19.68;81.08
70830;SHT30;58451;51.550;7.208;2023-09-12T04:35:09;19.67;81.07
70830;SHT30;58451;51.550;7.208;2023-09-12T04:36:41;19.69;81.07
70830;SHT30;58451;51.550;7.208;2023-09-12T04:38:13;19.66;80.98
70830;SHT30;58451;51.550;7.208;2023-09-12T04:39:47;19.65;80.98
70830;SHT30;58451;51.550;7.208;2023-09-12T04:41:20;19.65;80.95
70830;SHT30;58451;51.550;7.208;2023-09-12T04:42:53;19.64;80.95
70830;SHT30;58451;51.550;7.208;2023-09-12T04:44:25;19.64;80.93
70830;SHT30;58451;51.550;7.208;2023-09-12T04:45:57;19.63;80.95
70830;SHT30;58451;51.550;7.208;2023-09-12T04:47:33;19.61;80.92
70830;SHT30;58451;51.550;7.208;2023-09-12T04:49:05;19.60;80.95
70830;SHT30;58451;51.550;7.208;2023-09-12T04:50:41;19.58;80.93
70830;SHT30;58451;51.550;7.208;2023-09-12T04:52:17;19.56;80.93
70830;SHT30;58451;51.550;7.208;2023-09-12T04:53:49;19.54;80.97
70830;SHT30;58451;51.550;7.208;2023-09-12T04:55:24;19.50;81.03
70830;SHT30;58451;51.550;7.208;2023-09-12T04:56:56;19.50;81.08
70830;SHT30;58451;51.550;7.208;2023-09-12T04:58:28;19.47;81.17
70830;SHT30;58451;51.550;7.208;2023-09-12T05:00:00;19.44;81.32
70830;SHT30;58451;51.550;7.208;2023-09-12T05:01:36;19.44;81.25
70830;SHT30;58451;51.550;7.208;2023-09-12T05:03:08;19.42;81.28
70830;SHT30;58451;51.550;7.208;2023-09-12T05:04:41;19.43;81.23
70830;SHT30;58451;51.550;7.208;2023-09-12T05:06:13;19.42;81.30
70830;SHT30;58451;51.550;7.208;2023-09-12T05:07:45;19.43;81.33
70830;SHT30;58451;51.550;7.208;2023-09-12T05:09:17;19.44;81.37
70830;SHT30;58451;51.550;7.208;2023-09-12T05:10:50;19.45;81.45
70830;SHT30;58451;51.550;7.208;2023-09-12T05:12:21;19.45;81.57
70830;SHT30;58451;51.550;7.208;2023-09-12T05:13:54;19.45;81.60
70830;SHT30;58451;51.550;7.208;2023-09-12T05:15:26;19.44;81.50
70830;SHT30;58451;51.550;7.208;2023-09-12T05:16:58;19.46;81.52
70830;SHT30;58451;51.550;7.208;2023-09-12T05:18:30;19.47;81.57
70830;SHT30;58451;51.550;7.208;2023-09-12T05:20:03;19.47;81.58
70830;SHT30;58451;51.550;7.208;2023-09-12T05:21:38;19.46;81.63
70830;SHT30;58451;51.550;7.208;2023-09-12T05:23:11;19.47;81.67
70830;SHT30;58451;51.550;7.208;2023-09-12T05:24:43;19.47;81.70
70830;SHT30;58451;51.550;7.208;2023-09-12T05:26:16;19.49;81.68
70830;SHT30;58451;51.550;7.208;2023-09-12T05:27:48;19.51;81.65
70830;SHT30;58451;51.550;7.208;2023-09-12T05:29:20;19.55;81.68
70830;SHT30;58451;51.550;7.208;2023-09-12T05:30:55;19.57;81.72
70830;SHT30;58451;51.550;7.208;2023-09-12T05:32:27;19.58;81.77
70830;SHT30;58451;51.550;7.208;2023-09-12T05:33:59;19.59;81.78
70830;SHT30;58451;51.550;7.208;2023-09-12T05:35:31;19.59;81.88
70830;SHT30;58451;51.550;7.208;2023-09-12T05:37:03;19.59;81.92
70830;SHT30;58451;51.550;7.208;2023-09-12T05:38:35;19.59;81.88
70830;SHT30;58451;51.550;7.208;2023-09-12T05:40:07;19.60;81.85
70830;SHT30;58451;51.550;7.208;2023-09-12T05:41:41;19.61;81.82
70830;SHT30;58451;51.550;7.208;2023-09-12T05:43:13;19.60;81.82
70830;SHT30;58451;51.550;7.208;2023-09-12T05:44:45;19.60;81.85
70830;SHT30;58451;51.550;7.208;2023-09-12T05:46:20;19.62;81.88
70830;SHT30;58451;51.550;7.208;2023-09-12T05:47:52;19.63;81.98
70830;SHT30;58451;51.550;7.208;2023-09-12T05:49:24;19.62;82.30
70830;SHT30;58451;51.550;7.208;2023-09-12T05:50:56;19.60;82.73
70830;SHT30;58451;51.550;7.208;2023-09-12T05:52:28;19.59;82.75
70830;SHT30;58451;51.550;7.208;2023-09-12T05:54:00;19.58;82.65
70830;SHT30;58451;51.550;7.208;2023-09-12T05:55:32;19.56;82.58
70830;SHT30;58451;51.550;7.208;2023-09-12T05:57:04;19.56;82.57
70830;SHT30;58451;51.550;7.208;2023-09-12T05:58:37;19.57;82.55
70830;SHT30;58451;51.550;7.208;2023-09-12T06:00:15;19.60;82.50
70830;SHT30;58451;51.550;7.208;2023-09-12T06:01:49;19.61;82.45
70830;SHT30;58451;51.550;7.208;2023-09-12T06:03:21;19.64;82.52
70830;SHT30;58451;51.550;7.208;2023-09-12T06:04:53;19.64;82.45
70830;SHT30;58451;51.550;7.208;2023-09-12T06:06:26;19.66;82.42
70830;SHT30;58451;51.550;7.208;2023-09-12T06:07:59;19.69;82.40
70830;SHT30;58451;51.550;7.208;2023-09-12T06:09:31;19.71;82.53
70830;SHT30;58451;51.550;7.208;2023-09-12T06:11:03;19.73;82.58
70830;SHT30;58451;51.550;7.208;2023-09-12T06:12:36;19.72;82.42
70830;SHT30;58451;51.550;7.208;2023-09-12T06:14:08;19.75;82.57
70830;SHT30;58451;51.550;7.208;2023-09-12T06:15:40;19.74;82.58
70830;SHT30;58451;51.550;7.208;2023-09-12T06:17:13;19.75;82.50
70830;SHT30;58451;51.550;7.208;2023-09-12T06:18:45;19.77;82.47
70830;SHT30;58451;51.550;7.208;2023-09-12T06:20:17;19.81;82.40
70830;SHT30;58451;51.550;7.208;2023-09-12T06:21:49;19.84;82.32
70830;SHT30;58451;51.550;7.208;2023-09-12T06:23:21;19.86;82.35
70830;SHT30;58451;51.550;7.208;2023-09-12T06:24:53;19.88;82.32
70830;SHT30;58451;51.550;7.208;2023-09-12T06:26:25;19.90;82.33
70830;SHT30;58451;51.550;7.208;2023-09-12T06:27:57;19.93;82.27
70830;SHT30;58451;51.550;7.208;2023-09-12T06:29:29;19.98;82.22
70830;SHT30;58451;51.550;7.208;2023-09-12T06:31:01;20.00;82.25
70830;SHT30;58451;51.550;7.208;2023-09-12T06:32:33;20.04;82.15
70830;SHT30;58451;51.550;7.208;2023-09-12T06:34:05;20.07;82.13
70830;SHT30;58451;51.550;7.208;2023-09-12T06:35:37;20.09;82.17
70830;SHT30;58451;51.550;7.208;2023-09-12T06:37:13;20.12;82.18
70830;SHT30;58451;51.550;7.208;2023-09-12T06:38:45;20.11;82.27
70830;SHT30;58451;51.550;7.208;2023-09-12T06:40:17;20.09;82.30
70830;SHT30;58451;51.550;7.208;2023-09-12T06:41:49;20.08;82.35
70830;SHT30;58451;51.550;7.208;2023-09-12T06:43:21;20.02;82.87
70830;SHT30;58451;51.550;7.208;2023-09-12T06:44:53;19.96;83.10
70830;SHT30;58451;51.550;7.208;2023-09-12T06:46:26;19.92;83.07
70830;SHT30;58451;51.550;7.208;2023-09-12T06:47:59;19.90;83.13
70830;SHT30;58451;51.550;7.208;2023-09-12T06:49:31;19.86;83.30
70830;SHT30;58451;51.550;7.208;2023-09-12T06:51:08;19.83;83.38
70830;SHT30;58451;51.550;7.208;2023-09-12T06:52:48;19.75;83.63
70830;SHT30;58451;51.550;7.208;2023-09-12T06:54:20;19.67;83.97
70830;SHT30;58451;51.550;7.208;2023-09-12T06:55:52;19.61;83.82
70830;SHT30;58451;51.550;7.208;2023-09-12T06:57:24;19.54;83.42
70830;SHT30;58451;51.550;7.208;2023-09-12T06:58:56;19.49;83.43
70830;SHT30;58451;51.550;7.208;2023-09-12T07:00:30;19.44;83.42
70830;SHT30;58451;51.550;7.208;2023-09-12T07:02:03;19.40;83.33
70830;SHT30;58451;51.550;7.208;2023-09-12T07:03:35;19.36;83.32
70830;SHT30;58451;51.550;7.208;2023-09-12T07:05:09;19.35;83.32
70830;SHT30;58451;51.550;7.208;2023-09-12T07:06:40;19.33;83.30
70830;SHT30;58451;51.550;7.208;2023-09-12T07:08:14;19.33;83.37
70830;SHT30;58451;51.550;7.208;2023-09-12T07:09:46;19.31;83.42
70830;SHT30;58451;51.550;7.208;2023-09-12T07:11:18;19.31;83.42
70830;SHT30;58451;51.550;7.208;2023-09-12T07:12:52;19.33;83.42
70830;SHT30;58451;51.550;7.208;2023-09-12T07:14:25;19.31;83.42
70830;SHT30;58451;51.550;7.208;2023-09-12T07:15:57;19.32;83.42
70830;SHT30;58451;51.550;7.208;2023-09-12T07:17:30;19.32;83.43
70830;SHT30;58451;51.550;7.208;2023-09-12T07:19:02;19.30;83.42
70830;SHT30;58451;51.550;7.208;2023-09-12T07:20:35;19.29;83.40
70830;SHT30;58451;51.550;7.208;2023-09-12T07:22:07;19.28;83.43
70830;SHT30;58451;51.550;7.208;2023-09-12T07:23:39;19.28;83.57
70830;SHT30;58451;51.550;7.208;2023-09-12T07:25:12;19.29;83.53
70830;SHT30;58451;51.550;7.208;2023-09-12T07:26:45;19.28;83.58
70830;SHT30;58451;51.550;7.208;2023-09-12T07:28:18;19.27;83.58
70830;SHT30;58451;51.550;7.208;2023-09-12T07:29:51;19.26;83.67
70830;SHT30;58451;51.550;7.208;2023-09-12T07:31:23;19.24;83.90
70830;SHT30;58451;51.550;7.208;2023-09-12T07:32:55;19.20;83.95
70830;SHT30;58451;51.550;7.208;2023-09-12T07:34:28;19.17;83.93
70830;SHT30;58451;51.550;7.208;2023-09-12T07:36:01;19.18;83.88
70830;SHT30;58451;51.550;7.208;2023-09-12T07:37:36;19.15;83.90
70830;SHT30;58451;51.550;7.208;2023-09-12T07:39:07;19.17;83.87
70830;SHT30;58451;51.550;7.208;2023-09-12T07:40:41;19.17;83.88
70830;SHT30;58451;51.550;7.208;2023-09-12T07:42:14;19.19;83.88
70830;SHT30;58451;51.550;7.208;2023-09-12T07:43:46;19.20;83.92
70830;SHT30;58451;51.550;7.208;2023-09-12T07:45:18;19.21;83.92
70830;SHT30;58451;51.550;7.208;2023-09-12T07:46:53;19.25;83.90
70830;SHT30;58451;51.550;7.208;2023-09-12T07:48:26;19.28;83.85
70830;SHT30;58451;51.550;7.208;2023-09-12T07:49:59;19.32;83.85
70830;SHT30;58451;51.550;7.208;2023-09-12T07:51:32;19.38;83.87
70830;SHT30;58451;51.550;7.208;2023-09-12T07:53:07;19.46;83.85
70830;SHT30;58451;51.550;7.208;2023-09-12T07:54:40;19.58;83.75
70830;SHT30;58451;51.550;7.208;2023-09-12T07:56:13;19.69;83.68
70830;SHT30;58451;51.550;7.208;2023-09-12T07:57:45;19.83;83.57
70830;SHT30;58451;51.550;7.208;2023-09-12T07:59:18;19.95;83.62
70830;SHT30;58451;51.550;7.208;2023-09-12T08:00:50;20.07;83.52
70830;SHT30;58451;51.550;7.208;2023-09-12T08:02:22;20.18;83.50
70830;SHT30;58451;51.550;7.208;2023-09-12T08:03:55;20.26;83.40
70830;SHT30;58451;51.550;7.208;2023-09-12T08:05:27;20.35;83.33
70830;SHT30;58451;51.550;7.208;2023-09-12T08:06:58;20.47;83.17
70830;SHT30;58451;51.550;7.208;2023-09-12T08:08:32;20.61;83.00
70830;SHT30;58451;51.550;7.208;2023-09-12T08:10:04;20.72;83.00
70830;SHT30;58451;51.550;7.208;2023-09-12T08:11:37;20.84;83.02
70830;SHT30;58451;51.550;7.208;2023-09-12T08:13:09;20.92;82.53
70830;SHT30;58451;51.550;7.208;2023-09-12T08:14:41;20.97;82.48
70830;SHT30;58451;51.550;7.208;2023-09-12T08:16:13;21.00;82.33
70830;SHT30;58451;51.550;7.208;2023-09-12T08:17:44;21.03;82.13
70830;SHT30;58451;51.550;7.208;2023-09-12T08:19:17;21.08;82.03
70830;SHT30;58451;51.550;7.208;2023-09-12T08:20:50;21.14;81.88
70830;SHT30;58451;51.550;7.208;2023-09-12T08:22:22;21.17;81.58
70830;SHT30;58451;51.550;7.208;2023-09-12T08:23:54;21.19;81.52
70830;SHT30;58451;51.550;7.208;2023-09-12T08:25:26;21.22;81.33
70830;SHT30;58451;51.550;7.208;2023-09-12T08:26:59;21.24;81.15
70830;SHT30;58451;51.550;7.208;2023-09-12T08:28:31;21.27;81.12
70830;SHT30;58451;51.550;7.208;2023-09-12T08:30:03;21.29;80.90
70830;SHT30;58451;51.550;7.208;2023-09-12T08:31:36;21.26;80.72
70830;SHT30;58451;51.550;7.208;2023-09-12T08:33:08;21.24;80.63
70830;SHT30;58451;51.550;7.208;2023-09-12T08:34:40;21.24;80.62
70830;SHT30;58451;51.550;7.208;2023-09-12T08:36:12;21.25;80.55
70830;SHT30;58451;51.550;7.208;2023-09-12T08:37:46;21.28;80.52
70830;SHT30;58451;51.550;7.208;2023-09-12T08:39:18;21.28;80.43
70830;SHT30;58451;51.550;7.208;2023-09-12T08:40:57;21.28;80.40
70830;SHT30;58451;51.550;7.208;2023-09-12T08:42:29;21.31;80.40
70830;SHT30;58451;51.550;7.208;2023-09-12T08:44:04;21.34;80.28
70830;SHT30;58451;51.550;7.208;2023-09-12T08:45:38;21.39;80.20
70830;SHT30;58451;51.550;7.208;2023-09-12T08:47:11;21.42;80.22
70830;SHT30;58451;51.550;7.208;2023-09-12T08:48:45;21.51;80.20
70830;SHT30;58451;51.550;7.208;2023-09-12T08:50:20;21.61;80.08
70830;SHT30;58451;51.550;7.208;2023-09-12T08:51:54;21.69;80.02
70830;SHT30;58451;51.550;7.208;2023-09-12T08:53:27;21.81;79.90
70830;SHT30;58451;51.550;7.208;2023-09-12T08:54:59;21.91;79.72
70830;SHT30;58451;51.550;7.208;2023-09-12T08:56:32;22.04;79.58
70830;SHT30;58451;51.550;7.208;2023-09-12T08:58:07;22.25;79.35
70830;SHT30;58451;51.550;7.208;2023-09-12T08:59:39;22.44;79.17
70830;SHT30;58451;51.550;7.208;2023-09-12T09:01:16;22.66;79.03
70830;SHT30;58451;51.550;7.208;2023-09-12T09:02:51;22.80;78.28
70830;SHT30;58451;51.550;7.208;2023-09-12T09:04:29;22.98;78.27
70830;SHT30;58451;51.550;7.208;2023-09-12T09:06:06;23.10;78.15
70830;SHT30;58451;51.550;7.208;2023-09-12T09:07:41;23.25;78.00
70830;SHT30;58451;51.550;7.208;2023-09-12T09:09:15;23.36;77.82
70830;SHT30;58451;51.550;7.208;2023-09-12T09:10:58;23.45;77.85
70830;SHT30;58451;51.550;7.208;2023-09-12T09:12:34;23.56;77.63
70830;SHT30;58451;51.550;7.208;2023-09-12T09:14:07;23.63;77.10
70830;SHT30;58451;51.550;7.208;2023-09-12T09:15:39;23.60;76.93
70830;SHT30;58451;51.550;7.208;2023-09-12T09:17:14;23.64;77.03
70830;SHT30;58451;51.550;7.208;2023-09-12T09:19:05;23.70;76.70
70830;SHT30;58451;51.550;7.208;2023-09-12T09:20:41;23.68;76.48
70830;SHT30;58451;51.550;7.208;2023-09-12T09:22:17;23.69;76.28
70830;SHT30;58451;51.550;7.208;2023-09-12T09:23:49;23.72;76.02
70830;SHT30;58451;51.550;7.208;2023-09-12T09:25:22;23.73;75.28
70830;SHT30;58451;51.550;7.208;2023-09-12T09:26:55;23.70;74.68
70830;SHT30;58451;51.550;7.208;2023-09-12T09:28:31;23.68;75.00
70830;SHT30;58451;51.550;7.208;2023-09-12T09:30:03;23.73;74.88
70830;SHT30;58451;51.550;7.208;2023-09-12T09:31:41;23.77;74.40
70830;SHT30;58451;51.550;7.208;2023-09-12T09:33:24;23.83;74.62
70830;SHT30;58451;51.550;7.208;2023-09-12T09:34:58;24.04;74.48
70830;SHT30;58451;51.550;7.208;2023-09-12T09:36:32;24.24;74.22
70830;SHT30;58451;51.550;7.208;2023-09-12T09:38:06;24.50;74.00
70830;SHT30;58451;51.550;7.208;2023-09-12T09:39:40;24.80;73.82
70830;SHT30;58451;51.550;7.208;2023-09-12T09:41:12;25.10;72.83
70830;SHT30;58451;51.550;7.208;2023-09-12T09:42:44;25.36;70.38
70830;SHT30;58451;51.550;7.208;2023-09-12T09:44:18;25.68;70.60
70830;SHT30;58451;51.550;7.208;2023-09-12T09:45:59;25.85;69.48
70830;SHT30;58451;51.550;7.208;2023-09-12T09:49:45;26.24;67.97
70830;SHT30;58451;51.550;7.208;2023-09-12T09:51:18;26.38;67.85
70830;SHT30;58451;51.550;7.208;2023-09-12T09:52:54;26.46;66.50
70830;SHT30;58451;51.550;7.208;2023-09-12T09:54:27;26.44;66.18
70830;SHT30;58451;51.550;7.208;2023-09-12T09:57:47;26.21;65.53
70830;SHT30;58451;51.550;7.208;2023-09-12T09:59:26;26.13;66.10
70830;SHT30;58451;51.550;7.208;2023-09-12T10:01:05;26.13;64.73
70830;SHT30;58451;51.550;7.208;2023-09-12T10:02:41;26.22;65.65